首页
METAR-TAF:

METAR-TAF

机场 :

安尼斯敦, 阿拉巴马州, 美国

纬度: 33-35-26N, 经度: 085-50-51W, 海拔: 186米

当前天气观测

该预报发布于28分钟前的16:01 UTC
风速9节,风向东南
温度 27°C
湿度 62%
气压 1023 hPa
能見度: 16.1公里
散云层高于2900英尺
多云层高于3600英尺

METAR: KANB 011601Z AUTO 13009KT 10SM SCT029 BKN036 27/19 A3020 RMK AO2 T02720194

时间: 11:29 (16:29 UTC)

预报

该预报发布于3小时和47分钟前的12:42 UTC
预报有效从01日的 13点(UTC)到 02日的 12点(UTC)
风速4节,风向多变
能見度: 10公里
多云层高于1500英尺
从 01日的 1400点(UTC)
风速8节,风向
能見度: 10公里
少量云层高于8000英尺
从 02日的 0000点(UTC)
风速6节,风向
能見度: 10公里
散云层高于8000英尺
从 02日的 0600点(UTC)
风速4节,风向多变
能見度: 10公里
多云层高于6000英尺

TAF: KANB 011242Z 0113/0212 VRB04KT P6SM BKN015 FM011400 10008KT P6SM FEW080 FM020000 09006KT P6SM SCT080 FM020600 VRB04KT P6SM BKN060

超过4000个机场的气象观测和天气预报(METAR&TAF报告)。

可查询的气象台以黄色和红色小点在地图上表示。

将鼠标移到小点上方,可查看气象台名称。

然后点击查看天气观测和预报。

如需切换地图:点击带黑十字的绿色按钮放大地图;点击带横线的绿色按钮缩小地图;或者点击绿色箭头查看邻近地区的地图。


METAR-TAF: